Airfield :
LOGIN :

Register | Disclaimer

   EN    FR    IT 

 










Legend :    VFR   Marginal VFR   IFR   Intensive IFR   Very Intensive IFR
Visi :
Ceiling :
>= 8 km
>= 3000ft
5 to 8 km
1000 to 3000 ft
1500m to 5 km
500 to 1000 ft
800 to 1500m
200 to 500 ft
< 800m
< 200 ft
Symbols :   Thunderstorms  Fog  Heavy snow  Heavy precipitations  Wind > 20 kt
SIGMETs :     Misc.  Thunderstorms  Icing  Turbulence  Mountain Waves  Volcanic Ashes






- Airport Elevation : 856 ft
- IATA code : VGO


LEVX - Vigo Peinador

CURRENT METAR :
  • 282130Z VRB02KT 9999 FEW003 SCT015 10/09 Q1026 NOSIG

EXPIRED METARs :
  • 282100Z 27005KT 9999 FEW003 SCT005 10/10 Q1026 NOSIG
  • 282030Z 28006KT 9999 FEW003 SCT006 BKN035 11/10 Q1026 NOSIG
  • 282000Z VRB01KT 9999 FEW006 BKN037 11/10 Q1026 NOSIG
  • 281930Z 28006KT 250V310 9999 FEW006 11/10 Q1027 NOSIG
  • 281900Z 28007KT 260V320 9999 SCT007 11/10 Q1026 NOSIG
  • 281830Z 28008KT 9999 SCT008 SCT020 11/10 Q1026 NOSIG
  • 281800Z 26008KT 230V290 9999 FEW008 SCT010 BKN024 12/10 Q1026 NOSIG
  • 281730Z 27009KT 9999 FEW009 SCT031 BKN037 12/10 Q1026 NOSIG
  • 281700Z 26008KT 240V300 9999 FEW009 SCT024 BKN032 13/09 Q1026 NOSIG

TAF TAF LEVX
Valid from the 28 at 18:00 until the 29 at 18:00 UTC


281700Z 2818/2918 30009KT 9999 BKN030 TX13/2913Z TN07/2900Z
PROB40
TEMPO 2820/2906 3000 BR BKN005
PROB30
TEMPO 2821/2906 0350 RA FG VV001
TEMPO 2906/2912 3000 RA BR BKN005
PROB40
TEMPO 2909/2917 30018G30KT



MET'MAP, your aeronautical weather chart ! - Copyright ORBIFLY December 2007 - Disclaimer

ORBIFLY MET'MAP TEAM :

Programming & Development : Alexandra Zaïnal
Original concept : Baudouin d'Aumeries
Technical & hardware support : Manuel Goepfert
Assistance : Marc-Olivier Méhu




SOURCES & CREDITS :

   NOAA